Terminal Aerodrome Forecast
Issued by NWS Topeka, KS

Home | Current Version | Previous Version | Text Only | Print | Product List | Glossary On
Versions: 1 2 3 4 5 6 7 8 9 10 11 12 13 14 15 16 17 18
000
FTUS43 KTOP 040500
TAFTOP
TAF
KTOP 040529Z 0406/0506 36012G18KT P6SM BKN040
     FM041100 01010KT 5SM -SN BR BKN025 OVC040
     FM041500 01010KT P6SM SCT040 BKN090
     FM050200 01005KT P6SM BKN200=

USA.gov is the U.S. government's official web portal to all federal, state and local government web resources and services.